Time;durP1;ratioP1;P1;durP2;ratioP2;P2;SDS_P1;SDS_P2;PMS_P1;PMS_P2;Temp;Humidity;BMP_temperature;BMP_pressure;BME280_temperature;BME280_humidity;BME280_pressure;Samples;Min_cycle;Max_cycle;Signal;HPM_P1;HPM_P2
2024/01/03 05:46:14;;;;;;;14.57;2.75;;;;;;;9.62;100.00;98498.25;5792341;24;20131;31
2024/01/03 05:48:39;;;;;;;11.23;2.45;;;;;;;9.61;100.00;98505.81;4760619;29;20146;-75
2024/01/03 05:51:06;;;;;;;14.18;2.33;;;;;;;9.59;100.00;98511.03;4771075;30;20549;-75
2024/01/03 05:53:31;;;;;;;13.55;3.20;;;;;;;9.65;100.00;98508.56;4769769;30;20542;-75
2024/01/03 05:55:57;;;;;;;9.90;2.83;;;;;;;9.62;100.00;98509.41;4772105;30;20093;-75
2024/01/03 05:58:22;;;;;;;9.65;2.53;;;;;;;9.64;100.00;98512.56;4769807;30;20124;-76
2024/01/03 06:00:48;;;;;;;12.57;2.35;;;;;;;9.62;100.00;98517.81;4765970;30;20042;-75
2024/01/03 06:03:13;;;;;;;17.42;3.20;;;;;;;9.59;100.00;98516.63;4770585;29;20424;-75
2024/01/03 06:05:38;;;;;;;7.60;2.42;;;;;;;9.52;100.00;98517.56;4766419;29;20386;-75
2024/01/03 06:08:04;;;;;;;15.85;3.20;;;;;;;9.59;100.00;98527.03;4770532;29;20039;-75
2024/01/03 06:10:29;;;;;;;15.35;2.40;;;;;;;9.64;100.00;98529.34;4770420;30;20074;-75
2024/01/03 06:12:55;;;;;;;14.75;2.38;;;;;;;9.63;100.00;98524.94;4773179;30;20054;-76
2024/01/03 06:15:20;;;;;;;8.68;3.20;;;;;;;9.57;100.00;98514.28;4778466;30;20044;-75
2024/01/03 06:17:45;;;;;;;17.70;2.88;;;;;;;9.58;100.00;98520.66;4777345;29;20046;-75
2024/01/03 06:20:11;;;;;;;16.52;3.13;;;;;;;9.59;100.00;98538.97;4771053;30;20090;-75
2024/01/03 06:22:36;;;;;;;22.67;3.95;;;;;;;9.58;100.00;98526.25;4772721;29;20051;-75
2024/01/03 06:25:01;;;;;;;16.30;2.47;;;;;;;9.56;100.00;98525.88;4771093;29;20102;-75
2024/01/03 06:27:27;;;;;;;12.02;3.22;;;;;;;9.56;100.00;98523.09;4778271;29;20039;-75
2024/01/03 06:29:52;;;;;;;16.05;3.15;;;;;;;9.56;100.00;98528.66;4767712;29;20049;-75
2024/01/03 06:32:17;;;;;;;14.82;2.65;;;;;;;9.53;100.00;98540.72;4771728;29;20444;-75
2024/01/03 06:34:43;;;;;;;17.13;2.53;;;;;;;9.55;100.00;98539.06;4772898;30;20074;-75
2024/01/03 06:37:08;;;;;;;22.48;3.45;;;;;;;9.52;100.00;98528.72;4769877;30;20146;-75
2024/01/03 06:39:33;;;;;;;20.17;3.42;;;;;;;9.47;100.00;98534.03;4775415;29;20123;-75
2024/01/03 06:41:59;;;;;;;13.02;2.67;;;;;;;9.43;100.00;98536.91;4772148;30;20130;-75
2024/01/03 06:44:25;;;;;;;13.70;3.00;;;;;;;9.43;100.00;98542.47;4775271;30;20038;-76
2024/01/03 06:46:51;;;;;;;16.45;2.80;;;;;;;9.41;100.00;98544.91;4771780;29;20048;-75
2024/01/03 06:49:17;;;;;;;9.88;2.53;;;;;;;9.37;100.00;98544.19;4761621;30;20067;-75
2024/01/03 06:51:43;;;;;;;20.25;3.35;;;;;;;9.35;100.00;98544.59;4761300;30;20035;-75
2024/01/03 06:54:08;;;;;;;21.40;4.35;;;;;;;9.31;100.00;98546.66;4758867;30;20031;-75
2024/01/03 06:56:34;;;;;;;19.50;3.80;;;;;;;9.30;100.00;98552.69;4770689;30;20054;-75
2024/01/03 06:58:59;;;;;;;16.23;3.90;;;;;;;9.27;100.00;98551.53;4758434;30;20039;-75
2024/01/03 07:01:25;;;;;;;15.35;3.13;;;;;;;9.27;100.00;98539.59;4753470;30;20036;-75
2024/01/03 07:03:51;;;;;;;7.55;3.35;;;;;;;9.16;100.00;98550.94;4755807;30;20048;-75
2024/01/03 07:06:16;;;;;;;10.88;2.00;;;;;;;9.14;100.00;98554.16;4760351;30;20051;-74
2024/01/03 07:08:42;;;;;;;12.63;2.50;;;;;;;9.10;100.00;98545.03;4766950;30;20027;-75
2024/01/03 07:11:07;;;;;;;12.30;3.03;;;;;;;9.15;100.00;98555.72;4769441;30;20407;-75
2024/01/03 07:13:32;;;;;;;15.77;3.60;;;;;;;9.07;100.00;98554.28;4766500;29;20090;-75
2024/01/03 07:15:58;;;;;;;13.80;2.13;;;;;;;9.07;100.00;98565.44;4762280;30;20032;-75
2024/01/03 07:18:23;;;;;;;23.48;4.20;;;;;;;9.10;100.00;98563.78;4752418;30;20047;-75
2024/01/03 07:20:48;;;;;;;12.50;3.50;;;;;;;9.05;100.00;98562.28;4761049;30;20111;-75
2024/01/03 07:23:14;;;;;;;13.05;2.78;;;;;;;9.05;100.00;98576.25;4760538;30;20108;-77
2024/01/03 07:25:39;;;;;;;14.98;3.20;;;;;;;9.09;100.00;98567.81;4755599;29;20058;-77
2024/01/03 07:28:05;;;;;;;12.07;2.58;;;;;;;9.11;100.00;98571.75;4756194;30;20065;-77
2024/01/03 07:30:30;;;;;;;13.45;2.60;;;;;;;9.14;100.00;98576.47;4755209;30;20063;-76
2024/01/03 07:32:57;;;;;;;17.05;3.33;;;;;;;9.13;100.00;98577.69;4752096;30;20066;-76
2024/01/03 07:35:23;;;;;;;19.95;3.22;;;;;;;9.36;100.00;98579.69;4760063;30;20495;-76
2024/01/03 07:37:49;;;;;;;31.95;3.58;;;;;;;9.34;100.00;98572.97;4756054;30;20040;-75
2024/01/03 07:40:15;;;;;;;16.48;4.53;;;;;;;9.31;100.00;98573.81;4758205;30;20039;-76
2024/01/03 07:42:40;;;;;;;29.55;4.25;;;;;;;9.24;100.00;98585.88;4754470;30;20042;-75
2024/01/03 07:45:06;;;;;;;22.23;3.75;;;;;;;9.30;100.00;98589.78;4754761;30;20439;-75
2024/01/03 07:47:31;;;;;;;16.23;3.47;;;;;;;9.29;100.00;98581.81;4756982;30;20522;-75
2024/01/03 07:49:57;;;;;;;14.90;3.30;;;;;;;9.21;100.00;98591.53;4760740;30;20050;-77
2024/01/03 07:52:22;;;;;;;8.65;3.67;;;;;;;9.26;100.00;98594.63;4751561;30;20039;-75
2024/01/03 07:54:49;;;;;;;22.48;3.75;;;;;;;9.20;100.00;98592.75;4755012;30;20166;-75
2024/01/03 07:57:14;;;;;;;17.30;3.92;;;;;;;9.21;100.00;98597.09;4757896;30;20042;-74
2024/01/03 07:59:43;;;;;;;20.85;3.60;;;;;;;9.25;100.00;98606.22;4754671;30;20514;-75
2024/01/03 08:02:08;;;;;;;12.65;3.53;;;;;;;9.30;100.00;98611.31;4756604;30;20043;-75
2024/01/03 08:04:34;;;;;;;17.80;3.50;;;;;;;9.27;100.00;98612.16;4758572;30;20051;-75
2024/01/03 08:06:59;;;;;;;12.05;2.45;;;;;;;9.28;100.00;98614.53;4761071;30;20036;-73
2024/01/03 08:09:24;;;;;;;11.73;2.17;;;;;;;9.20;100.00;98603.91;4757215;30;20051;-72
2024/01/03 08:11:49;;;;;;;17.45;2.55;;;;;;;9.29;100.00;98618.09;4753906;30;20526;-72
2024/01/03 08:14:15;;;;;;;11.68;2.08;;;;;;;9.24;100.00;98613.81;4754379;30;20031;-72
2024/01/03 08:16:40;;;;;;;10.40;2.78;;;;;;;9.30;100.00;98616.91;4754463;30;20085;-72
2024/01/03 08:19:06;;;;;;;6.22;1.85;;;;;;;9.31;100.00;98612.88;4752461;30;20537;-73
2024/01/03 08:21:33;;;;;;;9.48;1.63;;;;;;;9.30;100.00;98630.88;4763802;30;20477;-76
2024/01/03 08:23:59;;;;;;;7.65;2.00;;;;;;;9.34;100.00;98629.59;4755186;30;20047;-74
2024/01/03 08:26:24;;;;;;;9.27;2.80;;;;;;;9.33;100.00;98632.78;4761911;29;20036;-72
2024/01/03 08:28:49;;;;;;;13.73;3.92;;;;;;;9.25;100.00;98628.53;4753096;30;20035;-73
2024/01/03 08:31:16;;;;;;;10.18;3.40;;;;;;;9.29;100.00;98627.25;4762379;29;20044;-72
2024/01/03 08:33:42;;;;;;;10.10;2.75;;;;;;;9.29;100.00;98637.66;4752227;30;20127;-73
2024/01/03 08:36:11;;;;;;;16.70;3.38;;;;;;;9.31;100.00;98627.63;4754105;30;20554;-71
2024/01/03 08:38:36;;;;;;;8.00;1.70;;;;;;;9.31;100.00;98640.81;4758868;30;20043;-72
2024/01/03 08:41:01;;;;;;;11.13;2.35;;;;;;;9.25;100.00;98642.50;4759148;30;20042;-72
2024/01/03 08:43:27;;;;;;;9.30;3.05;;;;;;;9.26;100.00;98649.69;4753759;30;20039;-72
2024/01/03 08:45:52;;;;;;;7.72;1.98;;;;;;;9.25;100.00;98643.28;4756497;30;20035;-71
2024/01/03 08:48:18;;;;;;;10.57;2.95;;;;;;;9.32;100.00;98647.97;4754280;30;20048;-74
2024/01/03 08:50:43;;;;;;;12.70;2.78;;;;;;;9.23;100.00;98653.28;4759234;30;20131;-73
2024/01/03 08:53:09;;;;;;;7.63;2.33;;;;;;;9.27;100.00;98662.41;4760731;30;20054;-73
2024/01/03 08:55:34;;;;;;;17.25;2.67;;;;;;;9.25;100.00;98664.84;4755702;30;20032;-75
2024/01/03 08:57:59;;;;;;;11.75;2.38;;;;;;;9.27;100.00;98671.56;4760671;30;20135;-73
2024/01/03 09:00:25;;;;;;;12.80;2.58;;;;;;;9.24;100.00;98668.84;4760094;30;20039;-73
2024/01/03 09:03:00;;;;;;;6.68;2.38;;;;;;;9.25;100.00;98670.41;4751961;30;20481;-74
2024/01/03 09:05:26;;;;;;;12.02;2.38;;;;;;;9.24;100.00;98672.41;4758803;30;20609;-72
2024/01/03 09:07:51;;;;;;;14.52;3.50;;;;;;;9.19;100.00;98664.50;4758863;30;20074;-73
2024/01/03 09:10:17;;;;;;;12.40;2.97;;;;;;;9.29;100.00;98671.94;4756664;30;20046;-73
2024/01/03 09:12:43;;;;;;;11.57;2.53;;;;;;;9.32;100.00;98673.13;4752740;30;20066;-72
2024/01/03 09:15:08;;;;;;;11.43;2.08;;;;;;;9.29;100.00;98671.94;4751268;30;20101;-72
2024/01/03 09:17:34;;;;;;;11.55;2.45;;;;;;;9.26;100.00;98672.00;4753358;30;20036;-73
2024/01/03 09:19:59;;;;;;;15.07;3.63;;;;;;;9.28;100.00;98672.38;4756150;30;20089;-72
2024/01/03 09:22:24;;;;;;;9.95;2.67;;;;;;;9.29;100.00;98679.53;4759607;30;20044;-74
2024/01/03 09:24:50;;;;;;;14.40;2.85;;;;;;;9.33;100.00;98672.66;4754141;30;20040;-75
2024/01/03 09:27:15;;;;;;;11.90;2.75;;;;;;;9.28;100.00;98673.16;4750880;30;20032;-75
2024/01/03 09:29:41;;;;;;;14.60;2.63;;;;;;;9.35;100.00;98677.84;4755074;29;20046;-74
2024/01/03 09:32:07;;;;;;;25.27;3.35;;;;;;;9.37;100.00;98686.56;4753616;30;20069;-72
2024/01/03 09:34:38;;;;;;;17.55;3.10;;;;;;;9.39;100.00;98683.38;4748241;30;20517;-73
2024/01/03 09:37:03;;;;;;;13.35;2.85;;;;;;;9.35;100.00;98691.78;4752401;30;20082;-73
2024/01/03 09:39:28;;;;;;;12.77;3.72;;;;;;;9.36;100.00;98699.75;4761507;30;20059;-72
2024/01/03 09:41:54;;;;;;;16.35;2.33;;;;;;;9.38;100.00;98690.94;4767976;30;20046;-74
2024/01/03 09:44:19;;;;;;;8.52;3.15;;;;;;;9.43;100.00;98693.25;4757188;30;20102;-73
2024/01/03 09:46:48;;;;;;;12.00;3.03;;;;;;;9.45;100.00;98690.84;4761961;30;20146;-74
2024/01/03 09:49:15;;;;;;;14.07;2.53;;;;;;;9.42;100.00;98700.03;4760430;30;20043;-74
2024/01/03 09:51:40;;;;;;;13.75;2.38;;;;;;;9.43;100.00;98698.84;4759282;30;20118;-75
2024/01/03 09:54:08;;;;;;;10.57;2.60;;;;;;;9.43;100.00;98704.44;4761825;30;20097;-74
2024/01/03 09:56:37;;;;;;;17.48;2.60;;;;;;;9.43;100.00;98704.44;4755842;30;20029;-72
2024/01/03 09:59:03;;;;;;;14.40;3.22;;;;;;;9.42;100.00;98702.84;4749727;30;20040;-74
2024/01/03 10:01:28;;;;;;;6.55;1.95;;;;;;;9.49;100.00;98708.31;4758391;30;20868;-73
2024/01/03 10:03:53;;;;;;;11.98;2.85;;;;;;;9.35;100.00;98703.75;4758149;30;20019;-73
2024/01/03 10:06:18;;;;;;;13.50;2.85;;;;;;;9.36;100.00;98705.34;4759818;30;20040;-73
2024/01/03 10:08:57;;;;;;;7.55;2.70;;;;;;;9.36;100.00;98704.56;4759014;30;20100;-75
2024/01/03 10:11:23;;;;;;;5.47;1.83;;;;;;;9.37;100.00;98708.91;4766981;30;20070;-74
2024/01/03 10:13:52;;;;;;;3.55;1.60;;;;;;;9.33;100.00;98713.75;4761622;29;20110;-73
2024/01/03 10:16:28;;;;;;;10.10;1.58;;;;;;;9.31;100.00;98708.59;4758116;30;20027;-73
2024/01/03 10:19:17;;;;;;;5.13;1.58;;;;;;;9.32;100.00;98715.78;4755476;30;20059;-74
2024/01/03 10:21:50;;;;;;;5.82;1.50;;;;;;;9.26;100.00;98722.25;4769758;30;20046;-73
2024/01/03 10:24:16;;;;;;;8.63;2.50;;;;;;;9.30;100.00;98707.03;4766383;30;20035;-75
2024/01/03 10:26:42;;;;;;;5.10;1.63;;;;;;;9.41;100.00;98706.84;4769832;30;20096;-75
2024/01/03 10:29:18;;;;;;;8.05;1.52;;;;;;;9.30;100.00;98709.81;4758740;30;20036;-76
2024/01/03 10:31:45;;;;;;;16.17;2.38;;;;;;;9.30;100.00;98723.78;4756827;30;20036;-76
2024/01/03 10:34:17;;;;;;;13.52;2.42;;;;;;;9.30;100.00;98714.63;4761306;30;20043;-76
2024/01/03 10:36:43;;;;;;;7.28;2.28;;;;;;;9.26;100.00;98720.25;4758784;30;20064;-76
2024/01/03 10:39:15;;;;;;;7.88;2.13;;;;;;;9.26;100.00;98705.50;4758594;30;20044;-75
2024/01/03 10:41:43;;;;;;;8.68;1.63;;;;;;;9.34;100.00;98706.97;4759482;30;20522;-75
2024/01/03 10:44:11;;;;;;;11.98;3.00;;;;;;;9.25;100.00;98709.50;4761433;30;20109;-75
2024/01/03 10:46:36;;;;;;;14.20;3.05;;;;;;;9.33;100.00;98708.97;4754886;30;20076;-75
2024/01/03 10:49:03;;;;;;;9.55;1.83;;;;;;;9.42;100.00;98708.41;4757127;30;20066;-75
2024/01/03 10:51:33;;;;;;;12.02;2.05;;;;;;;9.28;100.00;98706.66;4756579;30;20032;-76
2024/01/03 10:54:00;;;;;;;7.45;2.17;;;;;;;9.28;100.00;98720.63;4762142;30;20804;-75
2024/01/03 10:56:26;;;;;;;4.32;1.35;;;;;;;9.24;100.00;98719.09;4756200;30;20058;-75
2024/01/03 10:58:54;;;;;;;14.00;3.13;;;;;;;9.32;100.00;98709.41;4753427;30;20500;-75
2024/01/03 11:01:25;;;;;;;12.52;2.90;;;;;;;9.36;100.00;98710.13;4758516;30;20043;-75
2024/01/03 11:04:20;;;;;;;8.57;1.83;;;;;;;9.38;100.00;98724.44;4762405;30;20134;-75
2024/01/03 11:07:07;;;;;;;9.65;2.08;;;;;;;9.33;100.00;98714.53;4766833;30;20043;-74
2024/01/03 11:09:34;;;;;;;9.70;1.95;;;;;;;9.27;100.00;98726.63;4756833;30;20134;-75
2024/01/03 11:12:07;;;;;;;14.55;2.97;;;;;;;9.36;100.00;98710.94;4768369;29;20040;-75
2024/01/03 11:14:33;;;;;;;12.18;3.10;;;;;;;9.30;100.00;98706.25;4759030;30;20040;-75
2024/01/03 11:16:58;;;;;;;11.32;1.75;;;;;;;9.34;100.00;98712.56;4756420;30;20027;-75
2024/01/03 11:19:31;;;;;;;7.00;1.95;;;;;;;9.32;100.00;98712.19;4753652;30;20122;-75
2024/01/03 11:22:03;;;;;;;5.70;1.67;;;;;;;9.36;100.00;98724.88;4764316;30;20502;-76
2024/01/03 11:24:28;;;;;;;7.90;2.45;;;;;;;9.33;100.00;98710.97;4757140;30;20126;-76
2024/01/03 11:26:53;;;;;;;8.55;1.40;;;;;;;9.35;100.00;98719.72;4759968;30;20154;-76
2024/01/03 11:29:41;;;;;;;8.20;1.30;;;;;;;9.31;100.00;98718.97;4766213;30;20066;-76
2024/01/03 11:32:08;;;;;;;6.60;2.08;;;;;;;9.42;100.00;98702.84;4765434;29;20037;-76
2024/01/03 11:34:47;;;;;;;15.65;1.52;;;;;;;9.42;100.00;98714.00;4768026;29;20039;-76
2024/01/03 11:37:19;;;;;;;5.13;1.20;;;;;;;9.29;100.00;98707.44;4774094;29;20066;-75
2024/01/03 11:39:51;;;;;;;9.88;1.55;;;;;;;9.41;100.00;98712.44;4757673;30;20047;-75
2024/01/03 11:42:30;;;;;;;10.32;2.38;;;;;;;9.42;100.00;98708.41;4755493;30;20048;-74
2024/01/03 11:45:12;;;;;;;5.63;1.88;;;;;;;9.42;100.00;98700.03;4756505;30;20032;-74
2024/01/03 11:47:42;;;;;;;11.75;1.85;;;;;;;9.43;100.00;98703.66;4759571;30;20101;-75
2024/01/03 11:50:08;;;;;;;9.35;1.98;;;;;;;9.43;100.00;98709.22;4757417;30;20036;-75
2024/01/03 11:52:39;;;;;;;10.00;2.20;;;;;;;9.38;100.00;98707.69;4757267;30;20039;-75
2024/01/03 11:55:11;;;;;;;5.20;2.25;;;;;;;9.46;100.00;98720.31;4756478;30;20107;-75
2024/01/03 11:57:41;;;;;;;7.30;2.30;;;;;;;9.31;100.00;98724.56;4757170;30;20047;-75
2024/01/03 12:00:20;;;;;;;12.90;2.13;;;;;;;9.25;100.00;98709.50;4751368;30;20194;-75
2024/01/03 12:02:56;;;;;;;8.60;2.65;;;;;;;9.20;100.00;98718.34;4753491;30;20046;-75
2024/01/03 12:05:22;;;;;;;16.23;2.42;;;;;;;9.22;100.00;98722.31;4754606;30;20032;-75
2024/01/03 12:07:49;;;;;;;8.00;1.83;;;;;;;9.16;100.00;98708.00;4753591;30;20062;-75
2024/01/03 12:10:16;;;;;;;6.40;1.60;;;;;;;9.08;100.00;98709.34;4757012;30;20095;-75
2024/01/03 12:12:43;;;;;;;9.98;2.45;;;;;;;8.95;100.00;98703.53;4773747;29;20039;-75
2024/01/03 12:15:19;;;;;;;8.45;1.98;;;;;;;8.86;100.00;98727.59;4751666;30;20035;-75
2024/01/03 12:17:45;;;;;;;7.50;1.75;;;;;;;9.00;100.00;98712.66;4755053;30;20036;-75
2024/01/03 12:20:13;;;;;;;9.18;1.58;;;;;;;8.99;100.00;98711.09;4755496;30;20079;-77
2024/01/03 12:22:38;;;;;;;6.18;1.00;;;;;;;9.04;100.00;98728.13;4757040;30;20047;-77
2024/01/03 12:25:04;;;;;;;3.83;1.23;;;;;;;9.06;100.00;98716.53;4756706;30;20048;-77
2024/01/03 12:27:32;;;;;;;3.33;1.67;;;;;;;8.94;100.00;98712.34;4752702;30;20036;-77
2024/01/03 12:30:18;;;;;;;9.40;1.92;;;;;;;9.04;100.00;98719.75;4752643;30;20570;-77
2024/01/03 12:32:44;;;;;;;2.75;1.48;;;;;;;9.07;100.00;98732.09;4754289;30;20368;-77
2024/01/03 12:35:12;;;;;;;7.00;1.45;;;;;;;9.03;100.00;98720.97;4758008;30;20063;-77
2024/01/03 12:37:40;;;;;;;7.53;1.50;;;;;;;9.05;100.00;98715.75;4755503;30;20036;-76
2024/01/03 12:40:06;;;;;;;10.77;1.73;;;;;;;9.06;100.00;98717.34;4756594;30;20123;-76
2024/01/03 12:42:31;;;;;;;3.45;1.20;;;;;;;9.09;100.00;98696.97;4753626;30;20501;-76
2024/01/03 12:44:57;;;;;;;4.70;0.93;;;;;;;9.07;100.00;98699.41;4754012;30;20050;-76
2024/01/03 12:47:22;;;;;;;2.00;1.08;;;;;;;9.07;100.00;98704.97;4750734;30;20046;-76
2024/01/03 12:49:48;;;;;;;5.18;1.50;;;;;;;8.95;100.00;98697.94;4755761;30;20040;-77
2024/01/03 12:52:24;;;;;;;4.63;1.58;;;;;;;8.84;100.00;98693.75;4749494;30;20130;-76
2024/01/03 12:54:49;;;;;;;4.10;1.52;;;;;;;8.99;100.00;98689.53;4757468;30;20158;-76
2024/01/03 12:57:15;;;;;;;3.88;1.48;;;;;;;8.96;100.00;98687.59;4756420;30;20115;-77
2024/01/03 12:59:40;;;;;;;3.13;1.08;;;;;;;9.01;100.00;98684.34;4756459;30;20074;-76
2024/01/03 13:02:05;;;;;;;9.70;1.30;;;;;;;9.03;100.00;98698.66;4755696;30;20044;-76
2024/01/03 13:04:31;;;;;;;11.80;1.98;;;;;;;8.98;100.00;98696.34;4755198;30;20085;-76
2024/01/03 13:06:56;;;;;;;13.75;2.20;;;;;;;9.08;100.00;98695.38;4754044;30;20020;-76
2024/01/03 13:09:24;;;;;;;13.60;2.15;;;;;;;9.07;100.00;98693.81;4753394;30;20047;-77
2024/01/03 13:11:53;;;;;;;10.25;2.33;;;;;;;9.12;100.00;98698.91;4756996;30;20044;-77
2024/01/03 13:14:21;;;;;;;9.02;1.73;;;;;;;9.24;100.00;98696.75;4763088;30;20110;-77
2024/01/03 13:16:47;;;;;;;10.70;2.08;;;;;;;9.23;100.00;98700.75;4752951;30;20040;-77
2024/01/03 13:19:12;;;;;;;6.55;2.20;;;;;;;9.25;100.00;98695.53;4757413;30;20043;-75
2024/01/03 13:21:38;;;;;;;16.40;2.47;;;;;;;9.30;100.00;98689.50;4757046;30;20525;-76
2024/01/03 13:24:03;;;;;;;14.85;2.40;;;;;;;9.36;100.00;98688.59;4758133;30;20445;-76
2024/01/03 13:26:28;;;;;;;7.45;2.15;;;;;;;9.40;100.00;98699.69;4751500;30;20445;-76
2024/01/03 13:28:54;;;;;;;17.40;2.65;;;;;;;9.42;100.00;98699.25;4752167;30;20088;-76
2024/01/03 13:31:20;;;;;;;10.52;3.03;;;;;;;9.35;100.00;98691.78;4754195;30;20047;-76
2024/01/03 13:33:48;;;;;;;11.15;3.05;;;;;;;9.36;100.00;98702.53;4761131;30;20101;-76
2024/01/03 13:36:14;;;;;;;13.25;2.88;;;;;;;9.38;100.00;98696.53;4760289;30;20606;-76
2024/01/03 13:38:40;;;;;;;11.27;3.08;;;;;;;9.38;100.00;98696.53;4756976;30;20043;-76
2024/01/03 13:41:06;;;;;;;10.23;2.70;;;;;;;9.31;100.00;98702.22;4757461;30;20036;-76
2024/01/03 13:43:32;;;;;;;16.20;2.25;;;;;;;9.28;100.00;98703.09;4755904;30;20159;-75
2024/01/03 13:45:58;;;;;;;16.20;3.67;;;;;;;9.27;100.00;98704.28;4758914;30;20043;-76
2024/01/03 13:48:23;;;;;;;15.90;2.78;;;;;;;9.27;100.00;98698.69;4717674;29;1163974;-76
2024/01/03 13:50:48;;;;;;;14.93;4.05;;;;;;;9.27;100.00;98701.50;4749803;30;21016;-76
2024/01/03 13:53:14;;;;;;;9.35;3.22;;;;;;;9.27;100.00;98704.28;4758627;30;20039;-76
2024/01/03 13:55:39;;;;;;;9.40;3.17;;;;;;;9.29;100.00;98694.25;4758785;30;20878;-76
2024/01/03 13:58:05;;;;;;;18.75;3.67;;;;;;;9.31;100.00;98697.41;4757689;30;20039;-75
2024/01/03 14:00:30;;;;;;;11.52;2.08;;;;;;;9.29;100.00;98694.25;4755981;30;20032;-76
2024/01/03 14:02:57;;;;;;;16.42;4.28;;;;;;;9.32;100.00;98698.25;4758502;30;20043;-75
2024/01/03 14:05:25;;;;;;;7.65;3.15;;;;;;;9.35;100.00;98691.78;4762520;30;20799;-75
2024/01/03 14:07:51;;;;;;;19.77;3.85;;;;;;;9.38;100.00;98696.53;4756497;30;20779;-75
2024/01/03 14:10:16;;;;;;;7.35;2.88;;;;;;;9.39;100.00;98697.31;4762137;30;20044;-75
2024/01/03 14:12:42;;;;;;;13.05;2.75;;;;;;;9.37;100.00;98694.94;4762813;30;20402;-75
2024/01/03 14:15:10;;;;;;;12.93;3.10;;;;;;;9.41;100.00;98701.28;4766061;30;20047;-75
2024/01/03 14:17:39;;;;;;;16.70;3.10;;;;;;;9.40;100.00;98691.31;4757134;30;20847;-75
2024/01/03 14:20:12;;;;;;;15.45;3.05;;;;;;;9.39;100.00;98697.31;4765116;30;20047;-75
2024/01/03 14:22:42;;;;;;;16.45;2.58;;;;;;;9.35;100.00;98697.38;4759154;30;20451;-75
2024/01/03 14:25:09;;;;;;;16.83;2.25;;;;;;;9.38;100.00;98707.69;4757927;30;20032;-75
2024/01/03 14:27:34;;;;;;;18.13;2.45;;;;;;;9.38;100.00;98706.91;4757349;30;20055;-74
2024/01/03 14:30:00;;;;;;;17.77;4.32;;;;;;;9.29;100.00;98710.22;4758702;30;20031;-75
2024/01/03 14:32:26;;;;;;;9.48;3.20;;;;;;;9.21;100.00;98714.34;4752329;30;20078;-75
2024/01/03 14:34:51;;;;;;;15.00;3.60;;;;;;;9.20;100.00;98713.56;4758403;30;20048;-74
2024/01/03 14:37:17;;;;;;;11.73;2.75;;;;;;;9.23;100.00;98714.72;4759262;30;20044;-75
2024/01/03 14:39:43;;;;;;;14.15;2.30;;;;;;;9.21;100.00;98714.34;4755511;30;20383;-75
2024/01/03 14:42:11;;;;;;;14.38;2.95;;;;;;;9.05;100.00;98712.97;4757652;30;20046;-75
2024/01/03 14:44:37;;;;;;;10.35;2.20;;;;;;;9.12;100.00;98707.28;4761289;30;20035;-75
2024/01/03 14:47:03;;;;;;;12.18;2.42;;;;;;;9.16;100.00;98704.44;4758203;30;20130;-75
2024/01/03 14:49:29;;;;;;;21.27;3.97;;;;;;;9.14;100.00;98710.44;4760707;30;20497;-75
2024/01/03 14:51:55;;;;;;;16.77;3.08;;;;;;;9.08;100.00;98712.13;4760340;30;20107;-74
2024/01/03 14:54:21;;;;;;;9.13;2.25;;;;;;;9.14;100.00;98704.84;4760013;30;20093;-75
2024/01/03 14:56:46;;;;;;;11.13;2.38;;;;;;;9.05;100.00;98704.59;4754121;30;20051;-74
2024/01/03 14:59:14;;;;;;;17.30;2.85;;;;;;;9.12;100.00;98706.50;4762284;30;20035;-74
2024/01/03 15:01:43;;;;;;;9.00;3.72;;;;;;;9.13;100.00;98708.88;4763477;30;20495;-74
2024/01/03 15:04:09;;;;;;;17.95;3.15;;;;;;;9.16;100.00;98708.00;4762270;30;20036;-75
2024/01/03 15:06:37;;;;;;;16.77;2.65;;;;;;;9.19;100.00;98705.59;4757010;30;20387;-76
2024/01/03 15:09:03;;;;;;;17.80;2.83;;;;;;;9.12;100.00;98700.91;4776371;29;20036;-76
2024/01/03 15:11:28;;;;;;;23.00;3.17;;;;;;;9.07;100.00;98704.19;4755174;30;20098;-75
2024/01/03 15:13:54;;;;;;;10.00;3.58;;;;;;;9.18;100.00;98710.41;4759552;30;21008;-75
2024/01/03 15:16:21;;;;;;;16.30;3.58;;;;;;;9.20;100.00;98702.38;4757006;30;20043;-76
2024/01/03 15:18:48;;;;;;;13.80;2.53;;;;;;;9.23;100.00;98706.34;4753471;30;20044;-75
2024/01/03 15:21:16;;;;;;;18.33;3.35;;;;;;;9.23;100.00;98704.31;4769976;30;20036;-76
2024/01/03 15:23:41;;;;;;;15.05;2.95;;;;;;;9.21;100.00;98700.38;4760306;30;20039;-76
2024/01/03 15:26:06;;;;;;;11.30;2.38;;;;;;;9.23;100.00;98697.97;4756802;30;20045;-75
2024/01/03 15:28:32;;;;;;;17.45;4.10;;;;;;;9.10;100.00;98698.53;4756837;30;20044;-76
2024/01/03 15:30:57;;;;;;;19.27;4.05;;;;;;;9.00;100.00;98707.06;4754270;30;20055;-75
2024/01/03 15:33:28;;;;;;;13.55;3.03;;;;;;;9.12;100.00;98704.50;4759331;30;20048;-75
2024/01/03 15:35:53;;;;;;;10.35;3.25;;;;;;;9.05;100.00;98701.81;4753222;30;20036;-75
2024/01/03 15:38:22;;;;;;;14.15;2.90;;;;;;;9.06;100.00;98706.16;4755679;30;20066;-75
2024/01/03 15:40:48;;;;;;;14.00;2.67;;;;;;;9.04;100.00;98711.38;4758712;30;20035;-75
2024/01/03 15:43:13;;;;;;;12.82;2.92;;;;;;;9.10;100.00;98701.31;4758373;30;20043;-76
2024/01/03 15:45:40;;;;;;;16.40;3.90;;;;;;;9.05;100.00;98689.88;4758352;30;20043;-76
2024/01/03 15:48:06;;;;;;;24.70;3.83;;;;;;;8.99;100.00;98697.91;4754519;30;20466;-76
2024/01/03 15:50:32;;;;;;;17.45;4.00;;;;;;;8.97;100.00;98697.53;4762151;30;20048;-76
2024/01/03 15:52:58;;;;;;;15.45;3.13;;;;;;;8.89;100.00;98688.47;4760902;30;20471;-76
2024/01/03 15:55:24;;;;;;;19.67;4.25;;;;;;;8.87;100.00;98695.69;4757191;30;20550;-76
2024/01/03 15:57:50;;;;;;;6.93;3.35;;;;;;;9.04;100.00;98699.44;4759368;30;20032;-76
2024/01/03 16:00:15;;;;;;;15.95;5.65;;;;;;;8.98;100.00;98695.53;4758076;30;20040;-76
2024/01/03 16:02:41;;;;;;;17.92;3.67;;;;;;;8.97;100.00;98705.13;4755777;30;20364;-75
2024/01/03 16:05:06;;;;;;;15.57;3.85;;;;;;;8.86;100.00;98703.28;4759745;30;20032;-75
2024/01/03 16:07:32;;;;;;;19.85;3.90;;;;;;;8.87;100.00;98701.28;4758885;30;20047;-77
2024/01/03 16:09:57;;;;;;;20.77;3.97;;;;;;;8.88;100.00;98702.84;4761898;30;20408;-76
2024/01/03 16:12:23;;;;;;;11.50;4.35;;;;;;;8.86;100.00;98702.50;4762909;30;20096;-76
2024/01/03 16:14:49;;;;;;;10.48;5.30;;;;;;;8.86;100.00;98699.69;4757977;30;20036;-77
2024/01/03 16:17:15;;;;;;;13.77;2.70;;;;;;;8.86;100.00;98697.69;4759263;30;20514;-76
2024/01/03 16:19:40;;;;;;;9.55;3.45;;;;;;;8.85;100.00;98704.47;4755640;30;20059;-76
2024/01/03 16:22:06;;;;;;;17.00;3.22;;;;;;;8.83;100.00;98697.72;4760979;30;20031;-76
2024/01/03 16:24:31;;;;;;;13.43;2.90;;;;;;;8.72;100.00;98707.03;4755479;30;20040;-76
2024/01/03 16:27:03;;;;;;;13.30;2.80;;;;;;;8.77;100.00;98699.41;4760143;29;20144;-76
2024/01/03 16:29:30;;;;;;;14.40;3.13;;;;;;;8.72;100.00;98718.19;4761461;30;20651;-76
2024/01/03 16:31:56;;;;;;;9.63;3.65;;;;;;;8.70;100.00;98709.44;4759868;30;20495;-77
2024/01/03 16:34:25;;;;;;;11.48;3.03;;;;;;;8.78;100.00;98707.38;4763292;30;20138;-76
2024/01/03 16:36:57;;;;;;;10.23;2.75;;;;;;;8.71;100.00;98705.47;4755924;30;20032;-76
2024/01/03 16:39:23;;;;;;;7.97;2.80;;;;;;;8.70;100.00;98703.09;4757167;30;20040;-76
2024/01/03 16:41:49;;;;;;;7.13;1.95;;;;;;;8.60;100.00;98699.25;4759939;30;20130;-76
2024/01/03 16:44:16;;;;;;;9.95;2.55;;;;;;;8.60;100.00;98707.59;4755862;30;20044;-76
2024/01/03 16:46:43;;;;;;;7.90;2.13;;;;;;;8.67;100.00;98710.28;4760076;30;20024;-76
2024/01/03 16:49:09;;;;;;;3.63;1.48;;;;;;;8.53;100.00;98710.47;4756915;30;20078;-76
2024/01/03 16:51:45;;;;;;;5.57;1.60;;;;;;;8.59;100.00;98719.16;4757827;30;20067;-75
2024/01/03 16:54:11;;;;;;;5.35;2.00;;;;;;;8.64;100.00;98710.34;4753648;30;20499;-76
2024/01/03 16:56:45;;;;;;;5.80;1.63;;;;;;;8.60;100.00;98715.97;4751767;30;20035;-75
2024/01/03 16:59:13;;;;;;;7.05;2.53;;;;;;;8.63;100.00;98705.97;4754722;30;20564;-76
2024/01/03 17:01:38;;;;;;;7.63;2.25;;;;;;;8.58;100.00;98698.88;4756791;30;20527;-75
2024/01/03 17:04:04;;;;;;;5.28;1.70;;;;;;;8.47;100.00;98709.34;4755460;30;20118;-75
2024/01/03 17:06:29;;;;;;;5.28;2.75;;;;;;;8.53;100.00;98704.91;4756952;30;20059;-76
2024/01/03 17:08:55;;;;;;;7.30;2.28;;;;;;;8.60;100.00;98707.59;4748778;29;20480;-76
2024/01/03 17:11:27;;;;;;;7.20;2.33;;;;;;;8.55;100.00;98716.41;4734993;29;20055;-75
2024/01/03 17:13:53;;;;;;;6.10;1.75;;;;;;;8.63;100.00;98715.13;4756903;30;20040;-76